We bring you up!

Munich Aviation Company

Munich Aviation Company

Munich Aviation Company

Munich Aviation Company

Sie finden uns auch auf: Munich Aviation Company auf Instagram

Flugwetter Augsburg

[Quelle: ADDS]
METAR
EDMA 061620Z 01002KT 9999 FEW013 SCT026 01/M00 Q1014 =
EDMA 061400Z 0615/0624 26005KT 9000 OVC010 BECMG 0615/0617 16004KT BKN015 PROB30 TEMPO 0620/0624 2000 BCFG
TAF
EDMA 061400Z 0615/0624 26005KT 9000 OVC010 BECMG 0615/0617 16004KT BKN015 PROB30 TEMPO 0620/0624 2000 BCFG =

Kontakt